sensor_id;sensor_type;location;lat;lon;timestamp;P1;durP1;ratioP1;P2;durP2;ratioP2
72949;SDS011;64868;45.710;9.590;2023-11-19T00:03:03;6.68;;;2.58;;
72949;SDS011;64868;45.710;9.590;2023-11-19T00:05:33;7.32;;;2.63;;
72949;SDS011;64868;45.710;9.590;2023-11-19T00:08:04;7.00;;;2.75;;
72949;SDS011;64868;45.710;9.590;2023-11-19T00:10:50;5.75;;;2.05;;
72949;SDS011;64868;45.710;9.590;2023-11-19T00:13:20;6.53;;;2.35;;
72949;SDS011;64868;45.710;9.590;2023-11-19T00:15:50;6.90;;;2.50;;
72949;SDS011;64868;45.710;9.590;2023-11-19T00:18:20;7.20;;;2.53;;
72949;SDS011;64868;45.710;9.590;2023-11-19T00:21:07;8.27;;;2.50;;
72949;SDS011;64868;45.710;9.590;2023-11-19T00:23:37;7.43;;;2.67;;
72949;SDS011;64868;45.710;9.590;2023-11-19T00:26:07;6.75;;;3.00;;
72949;SDS011;64868;45.710;9.590;2023-11-19T00:28:37;6.72;;;2.72;;
72949;SDS011;64868;45.710;9.590;2023-11-19T00:31:24;9.02;;;3.05;;
72949;SDS011;64868;45.710;9.590;2023-11-19T00:33:54;7.47;;;2.75;;
72949;SDS011;64868;45.710;9.590;2023-11-19T00:36:24;7.07;;;2.47;;
72949;SDS011;64868;45.710;9.590;2023-11-19T00:38:54;7.30;;;2.50;;
72949;SDS011;64868;45.710;9.590;2023-11-19T00:41:24;6.22;;;2.60;;
72949;SDS011;64868;45.710;9.590;2023-11-19T00:46:57;7.25;;;2.80;;
72949;SDS011;64868;45.710;9.590;2023-11-19T00:49:27;7.75;;;2.40;;
72949;SDS011;64868;45.710;9.590;2023-11-19T00:51:57;6.38;;;2.15;;
72949;SDS011;64868;45.710;9.590;2023-11-19T00:54:27;6.45;;;2.47;;
72949;SDS011;64868;45.710;9.590;2023-11-19T00:56:57;6.20;;;2.40;;
72949;SDS011;64868;45.710;9.590;2023-11-19T00:59:28;6.80;;;2.60;;
72949;SDS011;64868;45.710;9.590;2023-11-19T01:01:59;10.48;;;2.60;;
72949;SDS011;64868;45.710;9.590;2023-11-19T01:04:30;7.88;;;2.83;;
72949;SDS011;64868;45.710;9.590;2023-11-19T01:07:19;11.98;;;4.05;;
72949;SDS011;64868;45.710;9.590;2023-11-19T01:09:49;7.60;;;3.00;;
72949;SDS011;64868;45.710;9.590;2023-11-19T01:12:19;6.80;;;2.70;;
72949;SDS011;64868;45.710;9.590;2023-11-19T01:14:49;6.75;;;2.28;;
72949;SDS011;64868;45.710;9.590;2023-11-19T01:17:17;7.22;;;2.45;;
72949;SDS011;64868;45.710;9.590;2023-11-19T01:19:47;7.20;;;2.22;;
72949;SDS011;64868;45.710;9.590;2023-11-19T01:22:17;7.90;;;2.60;;
72949;SDS011;64868;45.710;9.590;2023-11-19T01:24:47;6.45;;;2.53;;
72949;SDS011;64868;45.710;9.590;2023-11-19T01:30:06;7.25;;;2.47;;
72949;SDS011;64868;45.710;9.590;2023-11-19T01:32:37;6.78;;;2.58;;
72949;SDS011;64868;45.710;9.590;2023-11-19T01:35:04;6.28;;;2.40;;
72949;SDS011;64868;45.710;9.590;2023-11-19T01:37:34;6.97;;;2.28;;
72949;SDS011;64868;45.710;9.590;2023-11-19T01:40:05;7.20;;;2.42;;
72949;SDS011;64868;45.710;9.590;2023-11-19T01:42:38;6.97;;;2.35;;
72949;SDS011;64868;45.710;9.590;2023-11-19T01:45:07;6.40;;;2.20;;
72949;SDS011;64868;45.710;9.590;2023-11-19T01:47:37;7.03;;;2.42;;
72949;SDS011;64868;45.710;9.590;2023-11-19T01:50:03;6.47;;;2.30;;
72949;SDS011;64868;45.710;9.590;2023-11-19T01:52:33;6.13;;;2.28;;
72949;SDS011;64868;45.710;9.590;2023-11-19T01:55:01;7.38;;;2.40;;
72949;SDS011;64868;45.710;9.590;2023-11-19T01:57:32;5.57;;;2.10;;
72949;SDS011;64868;45.710;9.590;2023-11-19T01:59:59;7.18;;;2.30;;
72949;SDS011;64868;45.710;9.590;2023-11-19T02:02:29;6.10;;;2.08;;
72949;SDS011;64868;45.710;9.590;2023-11-19T02:04:59;6.47;;;2.40;;
72949;SDS011;64868;45.710;9.590;2023-11-19T02:07:29;5.70;;;1.98;;
72949;SDS011;64868;45.710;9.590;2023-11-19T02:10:00;7.00;;;2.88;;
72949;SDS011;64868;45.710;9.590;2023-11-19T02:12:30;5.55;;;2.20;;
72949;SDS011;64868;45.710;9.590;2023-11-19T02:15:01;5.22;;;1.80;;
72949;SDS011;64868;45.710;9.590;2023-11-19T02:20:16;6.05;;;2.00;;
72949;SDS011;64868;45.710;9.590;2023-11-19T02:22:47;5.45;;;2.17;;
72949;SDS011;64868;45.710;9.590;2023-11-19T02:25:27;6.13;;;2.03;;
72949;SDS011;64868;45.710;9.590;2023-11-19T02:27:58;5.75;;;2.00;;
72949;SDS011;64868;45.710;9.590;2023-11-19T02:30:29;6.32;;;1.90;;
72949;SDS011;64868;45.710;9.590;2023-11-19T02:33:00;5.43;;;1.95;;
72949;SDS011;64868;45.710;9.590;2023-11-19T02:35:32;4.80;;;1.75;;
72949;SDS011;64868;45.710;9.590;2023-11-19T02:43:34;8.18;;;2.20;;
72949;SDS011;64868;45.710;9.590;2023-11-19T02:46:07;6.13;;;2.10;;
72949;SDS011;64868;45.710;9.590;2023-11-19T02:48:37;4.72;;;1.63;;
72949;SDS011;64868;45.710;9.590;2023-11-19T02:51:05;7.28;;;1.88;;
72949;SDS011;64868;45.710;9.590;2023-11-19T02:53:36;5.25;;;1.75;;
72949;SDS011;64868;45.710;9.590;2023-11-19T02:56:09;5.78;;;1.60;;
72949;SDS011;64868;45.710;9.590;2023-11-19T02:58:47;5.10;;;1.60;;
72949;SDS011;64868;45.710;9.590;2023-11-19T03:01:20;4.63;;;1.50;;
72949;SDS011;64868;45.710;9.590;2023-11-19T03:03:50;5.00;;;1.60;;
72949;SDS011;64868;45.710;9.590;2023-11-19T03:06:24;7.22;;;1.70;;
72949;SDS011;64868;45.710;9.590;2023-11-19T03:08:51;6.25;;;1.75;;
72949;SDS011;64868;45.710;9.590;2023-11-19T03:11:21;6.18;;;1.70;;
72949;SDS011;64868;45.710;9.590;2023-11-19T03:16:35;6.70;;;1.80;;
72949;SDS011;64868;45.710;9.590;2023-11-19T03:19:03;4.97;;;1.50;;
72949;SDS011;64868;45.710;9.590;2023-11-19T03:21:33;4.80;;;1.60;;
72949;SDS011;64868;45.710;9.590;2023-11-19T03:24:19;5.68;;;1.83;;
72949;SDS011;64868;45.710;9.590;2023-11-19T03:26:49;4.70;;;1.27;;
72949;SDS011;64868;45.710;9.590;2023-11-19T03:29:19;5.10;;;1.70;;
72949;SDS011;64868;45.710;9.590;2023-11-19T03:31:50;5.40;;;1.60;;
72949;SDS011;64868;45.710;9.590;2023-11-19T03:34:20;5.43;;;1.63;;
72949;SDS011;64868;45.710;9.590;2023-11-19T03:36:50;4.60;;;1.42;;
72949;SDS011;64868;45.710;9.590;2023-11-19T03:39:20;5.40;;;1.55;;
72949;SDS011;64868;45.710;9.590;2023-11-19T03:41:48;5.38;;;1.30;;
72949;SDS011;64868;45.710;9.590;2023-11-19T03:44:18;4.75;;;1.40;;
72949;SDS011;64868;45.710;9.590;2023-11-19T03:46:48;6.68;;;1.60;;
72949;SDS011;64868;45.710;9.590;2023-11-19T03:49:18;4.57;;;1.30;;
72949;SDS011;64868;45.710;9.590;2023-11-19T03:51:48;4.78;;;1.65;;
72949;SDS011;64868;45.710;9.590;2023-11-19T03:54:18;5.25;;;1.30;;
72949;SDS011;64868;45.710;9.590;2023-11-19T03:56:46;4.13;;;1.17;;
72949;SDS011;64868;45.710;9.590;2023-11-19T03:59:16;4.80;;;1.30;;
72949;SDS011;64868;45.710;9.590;2023-11-19T04:01:46;5.13;;;1.33;;
72949;SDS011;64868;45.710;9.590;2023-11-19T04:04:30;5.43;;;1.70;;
72949;SDS011;64868;45.710;9.590;2023-11-19T04:07:00;5.97;;;1.40;;
72949;SDS011;64868;45.710;9.590;2023-11-19T04:09:30;3.85;;;1.10;;
72949;SDS011;64868;45.710;9.590;2023-11-19T04:12:00;5.47;;;1.33;;
72949;SDS011;64868;45.710;9.590;2023-11-19T04:14:30;5.53;;;1.40;;
72949;SDS011;64868;45.710;9.590;2023-11-19T04:17:00;4.38;;;1.27;;
72949;SDS011;64868;45.710;9.590;2023-11-19T04:19:30;4.90;;;1.20;;
72949;SDS011;64868;45.710;9.590;2023-11-19T04:22:00;3.95;;;1.10;;
72949;SDS011;64868;45.710;9.590;2023-11-19T04:24:30;5.05;;;1.27;;
72949;SDS011;64868;45.710;9.590;2023-11-19T04:27:00;3.97;;;1.20;;
72949;SDS011;64868;45.710;9.590;2023-11-19T04:29:30;5.07;;;1.20;;
72949;SDS011;64868;45.710;9.590;2023-11-19T04:32:01;4.50;;;1.35;;
72949;SDS011;64868;45.710;9.590;2023-11-19T04:34:26;3.85;;;1.17;;
72949;SDS011;64868;45.710;9.590;2023-11-19T04:36:57;4.28;;;1.15;;
72949;SDS011;64868;45.710;9.590;2023-11-19T04:39:27;4.88;;;1.52;;
72949;SDS011;64868;45.710;9.590;2023-11-19T04:44:44;3.95;;;1.10;;
72949;SDS011;64868;45.710;9.590;2023-11-19T04:47:14;4.05;;;1.10;;
72949;SDS011;64868;45.710;9.590;2023-11-19T04:49:44;4.75;;;1.15;;
72949;SDS011;64868;45.710;9.590;2023-11-19T04:52:11;5.95;;;1.23;;
72949;SDS011;64868;45.710;9.590;2023-11-19T04:54:45;4.50;;;1.10;;
72949;SDS011;64868;45.710;9.590;2023-11-19T04:57:15;5.10;;;1.35;;
72949;SDS011;64868;45.710;9.590;2023-11-19T04:59:43;4.47;;;1.38;;
72949;SDS011;64868;45.710;9.590;2023-11-19T05:02:13;4.65;;;1.30;;
72949;SDS011;64868;45.710;9.590;2023-11-19T05:04:46;5.15;;;1.20;;
72949;SDS011;64868;45.710;9.590;2023-11-19T05:07:14;4.13;;;0.93;;
72949;SDS011;64868;45.710;9.590;2023-11-19T05:09:44;5.13;;;1.30;;
72949;SDS011;64868;45.710;9.590;2023-11-19T05:12:14;3.88;;;1.00;;
72949;SDS011;64868;45.710;9.590;2023-11-19T05:14:41;3.95;;;1.10;;
72949;SDS011;64868;45.710;9.590;2023-11-19T05:17:16;4.35;;;1.15;;
72949;SDS011;64868;45.710;9.590;2023-11-19T05:19:46;4.35;;;1.35;;
72949;SDS011;64868;45.710;9.590;2023-11-19T05:22:15;3.47;;;0.95;;
72949;SDS011;64868;45.710;9.590;2023-11-19T05:24:43;4.78;;;1.13;;
72949;SDS011;64868;45.710;9.590;2023-11-19T05:27:13;4.60;;;1.10;;
72949;SDS011;64868;45.710;9.590;2023-11-19T05:32:27;4.55;;;1.30;;
72949;SDS011;64868;45.710;9.590;2023-11-19T05:34:54;3.80;;;1.00;;
72949;SDS011;64868;45.710;9.590;2023-11-19T05:37:24;4.00;;;1.10;;
72949;SDS011;64868;45.710;9.590;2023-11-19T05:39:54;8.23;;;0.95;;
72949;SDS011;64868;45.710;9.590;2023-11-19T05:42:25;4.13;;;1.02;;
72949;SDS011;64868;45.710;9.590;2023-11-19T05:44:55;4.25;;;1.00;;
72949;SDS011;64868;45.710;9.590;2023-11-19T05:47:25;3.80;;;1.00;;
72949;SDS011;64868;45.710;9.590;2023-11-19T05:49:55;3.75;;;1.05;;
72949;SDS011;64868;45.710;9.590;2023-11-19T05:52:25;3.85;;;1.10;;
72949;SDS011;64868;45.710;9.590;2023-11-19T05:54:55;3.25;;;0.75;;
72949;SDS011;64868;45.710;9.590;2023-11-19T05:57:25;4.45;;;0.85;;
72949;SDS011;64868;45.710;9.590;2023-11-19T05:59:56;4.20;;;1.00;;
72949;SDS011;64868;45.710;9.590;2023-11-19T06:02:24;4.47;;;1.00;;
72949;SDS011;64868;45.710;9.590;2023-11-19T06:04:54;4.43;;;1.13;;
72949;SDS011;64868;45.710;9.590;2023-11-19T06:10:27;5.15;;;1.10;;
72949;SDS011;64868;45.710;9.590;2023-11-19T06:12:59;3.90;;;0.82;;
72949;SDS011;64868;45.710;9.590;2023-11-19T06:15:30;5.78;;;0.95;;
72949;SDS011;64868;45.710;9.590;2023-11-19T06:18:00;5.80;;;1.05;;
72949;SDS011;64868;45.710;9.590;2023-11-19T06:20:46;4.05;;;0.95;;
72949;SDS011;64868;45.710;9.590;2023-11-19T06:23:17;4.93;;;0.95;;
72949;SDS011;64868;45.710;9.590;2023-11-19T06:28:33;5.65;;;0.90;;
72949;SDS011;64868;45.710;9.590;2023-11-19T06:31:03;7.82;;;1.10;;
72949;SDS011;64868;45.710;9.590;2023-11-19T06:36:17;4.57;;;1.10;;
72949;SDS011;64868;45.710;9.590;2023-11-19T06:38:43;4.10;;;0.90;;
72949;SDS011;64868;45.710;9.590;2023-11-19T06:41:08;3.72;;;0.77;;
72949;SDS011;64868;45.710;9.590;2023-11-19T06:43:40;3.63;;;0.93;;
72949;SDS011;64868;45.710;9.590;2023-11-19T06:46:17;9.13;;;1.17;;
72949;SDS011;64868;45.710;9.590;2023-11-19T06:48:43;3.00;;;0.70;;
72949;SDS011;64868;45.710;9.590;2023-11-19T06:51:09;6.55;;;0.82;;
72949;SDS011;64868;45.710;9.590;2023-11-19T06:53:37;4.68;;;0.95;;
72949;SDS011;64868;45.710;9.590;2023-11-19T06:56:02;3.33;;;0.70;;
72949;SDS011;64868;45.710;9.590;2023-11-19T06:58:31;9.32;;;1.02;;
72949;SDS011;64868;45.710;9.590;2023-11-19T07:03:41;3.70;;;0.80;;
72949;SDS011;64868;45.710;9.590;2023-11-19T07:11:36;8.20;;;1.15;;
72949;SDS011;64868;45.710;9.590;2023-11-19T07:14:04;4.72;;;0.90;;
72949;SDS011;64868;45.710;9.590;2023-11-19T07:16:33;4.70;;;0.88;;
72949;SDS011;64868;45.710;9.590;2023-11-19T07:19:04;6.68;;;1.13;;
72949;SDS011;64868;45.710;9.590;2023-11-19T07:21:30;3.95;;;1.15;;
72949;SDS011;64868;45.710;9.590;2023-11-19T07:24:14;7.28;;;1.23;;
72949;SDS011;64868;45.710;9.590;2023-11-19T07:26:43;5.15;;;0.90;;
72949;SDS011;64868;45.710;9.590;2023-11-19T07:29:09;4.93;;;1.23;;
72949;SDS011;64868;45.710;9.590;2023-11-19T07:31:34;4.20;;;0.95;;
72949;SDS011;64868;45.710;9.590;2023-11-19T07:34:01;4.18;;;1.00;;
72949;SDS011;64868;45.710;9.590;2023-11-19T07:36:27;3.67;;;0.90;;
72949;SDS011;64868;45.710;9.590;2023-11-19T07:39:11;4.55;;;1.10;;
72949;SDS011;64868;45.710;9.590;2023-11-19T07:41:36;4.00;;;0.80;;
72949;SDS011;64868;45.710;9.590;2023-11-19T07:44:01;4.78;;;1.00;;
72949;SDS011;64868;45.710;9.590;2023-11-19T07:46:27;4.95;;;1.00;;
72949;SDS011;64868;45.710;9.590;2023-11-19T08:25:26;3.55;;;0.90;;
72949;SDS011;64868;45.710;9.590;2023-11-19T08:27:54;3.55;;;1.00;;
72949;SDS011;64868;45.710;9.590;2023-11-19T08:30:21;3.80;;;0.80;;
72949;SDS011;64868;45.710;9.590;2023-11-19T08:32:52;4.10;;;1.00;;
72949;SDS011;64868;45.710;9.590;2023-11-19T08:35:28;4.05;;;1.08;;
72949;SDS011;64868;45.710;9.590;2023-11-19T08:37:58;5.40;;;1.30;;
72949;SDS011;64868;45.710;9.590;2023-11-19T08:40:26;5.68;;;1.10;;
72949;SDS011;64868;45.710;9.590;2023-11-19T08:42:56;5.10;;;1.10;;
72949;SDS011;64868;45.710;9.590;2023-11-19T08:45:26;3.95;;;1.00;;
72949;SDS011;64868;45.710;9.590;2023-11-19T08:47:54;3.85;;;0.82;;
72949;SDS011;64868;45.710;9.590;2023-11-19T08:50:22;4.35;;;0.95;;
72949;SDS011;64868;45.710;9.590;2023-11-19T08:55:38;3.70;;;1.02;;
72949;SDS011;64868;45.710;9.590;2023-11-19T08:58:08;4.25;;;1.10;;
72949;SDS011;64868;45.710;9.590;2023-11-19T09:00:38;6.00;;;1.20;;
72949;SDS011;64868;45.710;9.590;2023-11-19T09:03:09;3.95;;;1.02;;
72949;SDS011;64868;45.710;9.590;2023-11-19T09:05:39;4.63;;;1.00;;
72949;SDS011;64868;45.710;9.590;2023-11-19T09:08:09;6.57;;;1.10;;
72949;SDS011;64868;45.710;9.590;2023-11-19T09:10:36;7.78;;;1.30;;
72949;SDS011;64868;45.710;9.590;2023-11-19T09:13:07;4.13;;;1.10;;
72949;SDS011;64868;45.710;9.590;2023-11-19T09:15:35;4.97;;;1.13;;
72949;SDS011;64868;45.710;9.590;2023-11-19T09:18:21;6.82;;;0.90;;
72949;SDS011;64868;45.710;9.590;2023-11-19T09:20:51;5.32;;;1.20;;
72949;SDS011;64868;45.710;9.590;2023-11-19T09:23:21;3.72;;;0.88;;
72949;SDS011;64868;45.710;9.590;2023-11-19T09:25:49;5.13;;;1.10;;
72949;SDS011;64868;45.710;9.590;2023-11-19T09:28:33;5.45;;;1.02;;
72949;SDS011;64868;45.710;9.590;2023-11-19T09:31:01;4.75;;;1.20;;
72949;SDS011;64868;45.710;9.590;2023-11-19T09:33:31;4.90;;;1.00;;
72949;SDS011;64868;45.710;9.590;2023-11-19T09:35:59;5.88;;;1.20;;
72949;SDS011;64868;45.710;9.590;2023-11-19T09:38:25;4.35;;;1.30;;
72949;SDS011;64868;45.710;9.590;2023-11-19T09:43:39;4.55;;;1.40;;
72949;SDS011;64868;45.710;9.590;2023-11-19T09:46:07;4.00;;;1.38;;
72949;SDS011;64868;45.710;9.590;2023-11-19T09:48:35;7.55;;;1.70;;
72949;SDS011;64868;45.710;9.590;2023-11-19T09:51:07;5.30;;;1.33;;
72949;SDS011;64868;45.710;9.590;2023-11-19T09:56:40;8.35;;;1.50;;
72949;SDS011;64868;45.710;9.590;2023-11-19T09:59:10;6.22;;;1.30;;
72949;SDS011;64868;45.710;9.590;2023-11-19T10:01:40;4.50;;;1.00;;
72949;SDS011;64868;45.710;9.590;2023-11-19T10:04:11;4.53;;;1.30;;
72949;SDS011;64868;45.710;9.590;2023-11-19T10:06:45;5.70;;;1.20;;
72949;SDS011;64868;45.710;9.590;2023-11-19T10:09:15;5.75;;;1.38;;
72949;SDS011;64868;45.710;9.590;2023-11-19T10:11:42;5.68;;;1.63;;
72949;SDS011;64868;45.710;9.590;2023-11-19T10:14:12;4.80;;;1.30;;
72949;SDS011;64868;45.710;9.590;2023-11-19T10:16:43;4.70;;;1.65;;
72949;SDS011;64868;45.710;9.590;2023-11-19T10:19:14;5.40;;;1.80;;
72949;SDS011;64868;45.710;9.590;2023-11-19T10:22:07;5.70;;;1.98;;
72949;SDS011;64868;45.710;9.590;2023-11-19T10:27:29;7.50;;;1.70;;
72949;SDS011;64868;45.710;9.590;2023-11-19T10:29:59;5.05;;;1.30;;
72949;SDS011;64868;45.710;9.590;2023-11-19T10:32:24;6.65;;;1.30;;
72949;SDS011;64868;45.710;9.590;2023-11-19T10:34:51;4.10;;;1.00;;
72949;SDS011;64868;45.710;9.590;2023-11-19T10:37:38;5.72;;;0.95;;
72949;SDS011;64868;45.710;9.590;2023-11-19T10:40:08;4.20;;;0.70;;
72949;SDS011;64868;45.710;9.590;2023-11-19T10:42:38;4.70;;;1.33;;
72949;SDS011;64868;45.710;9.590;2023-11-19T10:45:15;3.45;;;0.80;;
72949;SDS011;64868;45.710;9.590;2023-11-19T10:47:52;6.43;;;1.00;;
72949;SDS011;64868;45.710;9.590;2023-11-19T10:50:21;4.18;;;0.98;;
72949;SDS011;64868;45.710;9.590;2023-11-19T10:52:51;4.10;;;1.00;;
72949;SDS011;64868;45.710;9.590;2023-11-19T10:55:24;3.45;;;0.93;;
72949;SDS011;64868;45.710;9.590;2023-11-19T10:57:56;4.97;;;1.33;;
72949;SDS011;64868;45.710;9.590;2023-11-19T11:00:25;4.57;;;1.02;;
72949;SDS011;64868;45.710;9.590;2023-11-19T11:02:53;5.25;;;1.45;;
72949;SDS011;64868;45.710;9.590;2023-11-19T11:08:06;5.20;;;1.50;;
72949;SDS011;64868;45.710;9.590;2023-11-19T11:10:31;5.55;;;1.08;;
72949;SDS011;64868;45.710;9.590;2023-11-19T11:13:04;5.22;;;1.40;;
72949;SDS011;64868;45.710;9.590;2023-11-19T11:15:35;6.25;;;1.20;;
72949;SDS011;64868;45.710;9.590;2023-11-19T11:18:03;8.00;;;1.20;;
72949;SDS011;64868;45.710;9.590;2023-11-19T11:20:34;6.20;;;1.30;;
72949;SDS011;64868;45.710;9.590;2023-11-19T11:26:00;5.65;;;1.35;;
72949;SDS011;64868;45.710;9.590;2023-11-19T11:28:39;5.22;;;1.60;;
72949;SDS011;64868;45.710;9.590;2023-11-19T11:31:10;6.32;;;1.67;;
72949;SDS011;64868;45.710;9.590;2023-11-19T11:36:54;5.30;;;1.52;;
72949;SDS011;64868;45.710;9.590;2023-11-19T11:39:43;7.43;;;2.03;;
72949;SDS011;64868;45.710;9.590;2023-11-19T11:42:30;6.20;;;1.35;;
72949;SDS011;64868;45.710;9.590;2023-11-19T11:50:14;4.75;;;1.42;;
72949;SDS011;64868;45.710;9.590;2023-11-19T11:57:55;6.35;;;2.10;;
72949;SDS011;64868;45.710;9.590;2023-11-19T12:02:52;7.55;;;2.35;;
72949;SDS011;64868;45.710;9.590;2023-11-19T12:05:23;7.05;;;2.40;;
72949;SDS011;64868;45.710;9.590;2023-11-19T12:08:04;8.50;;;3.95;;
72949;SDS011;64868;45.710;9.590;2023-11-19T12:10:33;11.77;;;6.43;;
72949;SDS011;64868;45.710;9.590;2023-11-19T12:13:06;6.72;;;3.03;;
72949;SDS011;64868;45.710;9.590;2023-11-19T12:15:36;6.40;;;2.88;;
72949;SDS011;64868;45.710;9.590;2023-11-19T12:18:18;6.15;;;2.45;;
72949;SDS011;64868;45.710;9.590;2023-11-19T12:20:47;8.07;;;3.28;;
72949;SDS011;64868;45.710;9.590;2023-11-19T12:23:17;7.88;;;2.97;;
72949;SDS011;64868;45.710;9.590;2023-11-19T12:25:47;10.32;;;4.22;;
72949;SDS011;64868;45.710;9.590;2023-11-19T12:28:33;8.70;;;3.10;;
72949;SDS011;64868;45.710;9.590;2023-11-19T12:33:50;5.95;;;1.95;;
72949;SDS011;64868;45.710;9.590;2023-11-19T12:36:18;69.13;;;24.67;;
72949;SDS011;64868;45.710;9.590;2023-11-19T12:38:48;22.98;;;8.13;;
72949;SDS011;64868;45.710;9.590;2023-11-19T12:41:16;9.55;;;2.80;;
72949;SDS011;64868;45.710;9.590;2023-11-19T12:43:48;10.20;;;4.53;;
72949;SDS011;64868;45.710;9.590;2023-11-19T12:46:21;9.05;;;4.45;;
72949;SDS011;64868;45.710;9.590;2023-11-19T12:48:52;5.90;;;1.85;;
72949;SDS011;64868;45.710;9.590;2023-11-19T12:51:22;6.78;;;2.03;;
72949;SDS011;64868;45.710;9.590;2023-11-19T12:53:50;8.18;;;1.27;;
72949;SDS011;64868;45.710;9.590;2023-11-19T12:56:19;6.95;;;2.20;;
72949;SDS011;64868;45.710;9.590;2023-11-19T12:58:48;6.45;;;1.75;;
72949;SDS011;64868;45.710;9.590;2023-11-19T13:01:19;6.15;;;1.83;;
72949;SDS011;64868;45.710;9.590;2023-11-19T13:04:14;5.93;;;2.00;;
72949;SDS011;64868;45.710;9.590;2023-11-19T13:06:44;10.15;;;1.77;;
72949;SDS011;64868;45.710;9.590;2023-11-19T13:09:30;8.23;;;2.58;;
72949;SDS011;64868;45.710;9.590;2023-11-19T13:12:11;7.03;;;2.40;;
72949;SDS011;64868;45.710;9.590;2023-11-19T13:14:39;5.10;;;1.70;;
72949;SDS011;64868;45.710;9.590;2023-11-19T13:17:09;5.88;;;2.40;;
72949;SDS011;64868;45.710;9.590;2023-11-19T13:19:42;9.75;;;3.20;;
72949;SDS011;64868;45.710;9.590;2023-11-19T13:22:10;5.75;;;2.50;;
72949;SDS011;64868;45.710;9.590;2023-11-19T13:24:37;10.87;;;2.97;;
72949;SDS011;64868;45.710;9.590;2023-11-19T13:27:07;10.70;;;4.65;;
72949;SDS011;64868;45.710;9.590;2023-11-19T13:29:35;7.13;;;2.20;;
72949;SDS011;64868;45.710;9.590;2023-11-19T13:32:02;9.63;;;4.07;;
72949;SDS011;64868;45.710;9.590;2023-11-19T13:34:32;6.78;;;2.33;;
72949;SDS011;64868;45.710;9.590;2023-11-19T13:37:03;5.20;;;1.90;;
72949;SDS011;64868;45.710;9.590;2023-11-19T13:39:28;15.75;;;5.75;;
72949;SDS011;64868;45.710;9.590;2023-11-19T13:41:53;7.85;;;2.90;;
72949;SDS011;64868;45.710;9.590;2023-11-19T13:44:40;8.48;;;4.00;;
72949;SDS011;64868;45.710;9.590;2023-11-19T13:49:49;9.00;;;2.95;;
72949;SDS011;64868;45.710;9.590;2023-11-19T13:52:35;6.45;;;2.10;;
72949;SDS011;64868;45.710;9.590;2023-11-19T13:55:05;6.25;;;2.20;;
72949;SDS011;64868;45.710;9.590;2023-11-19T13:57:35;9.32;;;3.10;;
72949;SDS011;64868;45.710;9.590;2023-11-19T14:00:22;9.68;;;2.58;;
72949;SDS011;64868;45.710;9.590;2023-11-19T14:03:08;9.68;;;2.85;;
72949;SDS011;64868;45.710;9.590;2023-11-19T14:05:38;6.35;;;2.40;;
72949;SDS011;64868;45.710;9.590;2023-11-19T14:08:06;7.15;;;2.60;;
72949;SDS011;64868;45.710;9.590;2023-11-19T14:10:36;9.25;;;2.80;;
72949;SDS011;64868;45.710;9.590;2023-11-19T14:13:07;6.68;;;2.50;;
72949;SDS011;64868;45.710;9.590;2023-11-19T14:15:35;7.88;;;2.50;;
72949;SDS011;64868;45.710;9.590;2023-11-19T14:18:05;7.53;;;2.47;;
72949;SDS011;64868;45.710;9.590;2023-11-19T14:20:35;6.88;;;2.75;;
72949;SDS011;64868;45.710;9.590;2023-11-19T14:23:05;7.40;;;2.60;;
72949;SDS011;64868;45.710;9.590;2023-11-19T14:25:35;9.43;;;2.70;;
72949;SDS011;64868;45.710;9.590;2023-11-19T14:28:05;6.85;;;2.50;;
72949;SDS011;64868;45.710;9.590;2023-11-19T14:30:35;6.47;;;2.53;;
72949;SDS011;64868;45.710;9.590;2023-11-19T14:33:05;6.38;;;2.50;;
72949;SDS011;64868;45.710;9.590;2023-11-19T14:35:35;5.28;;;2.33;;
72949;SDS011;64868;45.710;9.590;2023-11-19T14:38:05;6.57;;;2.10;;
72949;SDS011;64868;45.710;9.590;2023-11-19T14:40:52;6.50;;;2.28;;
72949;SDS011;64868;45.710;9.590;2023-11-19T14:43:22;7.00;;;2.40;;
72949;SDS011;64868;45.710;9.590;2023-11-19T14:45:49;5.50;;;2.08;;
72949;SDS011;64868;45.710;9.590;2023-11-19T14:48:19;12.00;;;3.83;;
72949;SDS011;64868;45.710;9.590;2023-11-19T14:50:47;7.85;;;3.60;;
72949;SDS011;64868;45.710;9.590;2023-11-19T14:53:17;10.93;;;4.00;;
72949;SDS011;64868;45.710;9.590;2023-11-19T14:55:47;7.63;;;3.35;;
72949;SDS011;64868;45.710;9.590;2023-11-19T14:58:17;9.13;;;3.33;;
72949;SDS011;64868;45.710;9.590;2023-11-19T15:00:47;8.10;;;3.00;;
72949;SDS011;64868;45.710;9.590;2023-11-19T15:03:15;9.23;;;3.00;;
72949;SDS011;64868;45.710;9.590;2023-11-19T15:05:45;7.47;;;2.90;;
72949;SDS011;64868;45.710;9.590;2023-11-19T15:08:15;8.93;;;3.03;;
72949;SDS011;64868;45.710;9.590;2023-11-19T15:11:01;8.25;;;3.08;;
72949;SDS011;64868;45.710;9.590;2023-11-19T15:13:29;8.95;;;3.30;;
72949;SDS011;64868;45.710;9.590;2023-11-19T15:15:59;7.85;;;3.00;;
72949;SDS011;64868;45.710;9.590;2023-11-19T15:18:29;9.15;;;3.10;;
72949;SDS011;64868;45.710;9.590;2023-11-19T15:20:57;7.88;;;3.10;;
72949;SDS011;64868;45.710;9.590;2023-11-19T15:23:27;12.60;;;5.93;;
72949;SDS011;64868;45.710;9.590;2023-11-19T15:25:57;11.70;;;4.72;;
72949;SDS011;64868;45.710;9.590;2023-11-19T15:28:22;9.48;;;4.00;;
72949;SDS011;64868;45.710;9.590;2023-11-19T15:30:50;7.28;;;3.33;;
72949;SDS011;64868;45.710;9.590;2023-11-19T15:33:20;8.35;;;3.40;;
72949;SDS011;64868;45.710;9.590;2023-11-19T15:36:07;10.23;;;4.40;;
72949;SDS011;64868;45.710;9.590;2023-11-19T15:38:37;11.88;;;5.88;;
72949;SDS011;64868;45.710;9.590;2023-11-19T15:41:07;12.38;;;7.28;;
72949;SDS011;64868;45.710;9.590;2023-11-19T15:43:35;14.55;;;8.35;;
72949;SDS011;64868;45.710;9.590;2023-11-19T15:46:08;17.30;;;9.50;;
72949;SDS011;64868;45.710;9.590;2023-11-19T15:48:36;18.88;;;9.55;;
72949;SDS011;64868;45.710;9.590;2023-11-19T15:51:06;16.52;;;9.73;;
72949;SDS011;64868;45.710;9.590;2023-11-19T15:53:34;18.52;;;10.93;;
72949;SDS011;64868;45.710;9.590;2023-11-19T15:56:01;17.02;;;10.70;;
72949;SDS011;64868;45.710;9.590;2023-11-19T15:58:30;16.35;;;10.68;;
72949;SDS011;64868;45.710;9.590;2023-11-19T16:00:58;16.98;;;11.45;;
72949;SDS011;64868;45.710;9.590;2023-11-19T16:03:27;18.17;;;10.93;;
72949;SDS011;64868;45.710;9.590;2023-11-19T16:05:57;18.65;;;11.43;;
72949;SDS011;64868;45.710;9.590;2023-11-19T16:08:25;18.55;;;11.38;;
72949;SDS011;64868;45.710;9.590;2023-11-19T16:10:52;20.20;;;11.65;;
72949;SDS011;64868;45.710;9.590;2023-11-19T16:13:23;20.73;;;12.10;;
72949;SDS011;64868;45.710;9.590;2023-11-19T16:15:48;20.10;;;12.65;;
72949;SDS011;64868;45.710;9.590;2023-11-19T16:18:18;19.80;;;13.30;;
72949;SDS011;64868;45.710;9.590;2023-11-19T16:21:04;21.60;;;11.23;;
72949;SDS011;64868;45.710;9.590;2023-11-19T16:23:34;20.27;;;12.82;;
72949;SDS011;64868;45.710;9.590;2023-11-19T16:26:00;22.25;;;13.43;;
72949;SDS011;64868;45.710;9.590;2023-11-19T16:28:30;20.65;;;14.65;;
72949;SDS011;64868;45.710;9.590;2023-11-19T16:31:00;25.48;;;12.10;;
72949;SDS011;64868;45.710;9.590;2023-11-19T16:33:30;24.33;;;14.18;;
72949;SDS011;64868;45.710;9.590;2023-11-19T16:35:59;15.15;;;10.13;;
72949;SDS011;64868;45.710;9.590;2023-11-19T16:38:27;15.80;;;9.00;;
72949;SDS011;64868;45.710;9.590;2023-11-19T16:41:11;16.98;;;9.60;;
72949;SDS011;64868;45.710;9.590;2023-11-19T16:43:40;16.95;;;9.45;;
72949;SDS011;64868;45.710;9.590;2023-11-19T16:46:24;19.55;;;11.40;;
72949;SDS011;64868;45.710;9.590;2023-11-19T16:48:54;18.10;;;10.73;;
72949;SDS011;64868;45.710;9.590;2023-11-19T16:51:19;24.02;;;11.63;;
72949;SDS011;64868;45.710;9.590;2023-11-19T16:53:50;20.90;;;11.23;;
72949;SDS011;64868;45.710;9.590;2023-11-19T16:56:17;18.55;;;11.38;;
72949;SDS011;64868;45.710;9.590;2023-11-19T17:01:14;22.38;;;11.52;;
72949;SDS011;64868;45.710;9.590;2023-11-19T17:03:44;17.05;;;10.32;;
72949;SDS011;64868;45.710;9.590;2023-11-19T17:06:14;18.70;;;10.77;;